Burns Pinion Ridge Reserve, California Weather observations

Data are for 10 minute period ending at time listed.
 Day   Time   Solar   Ave.   Ave.  Ave.  Vector  Max.   Baro.   Total    
  of    of     Rad.   Air    Rel.  Wind   Wind   Wind  Press.  Precip.   
Year   Day            Temp.  Hum.  Speed  Dir.   Gust                    
2015   (PST)  Kw/m2    F      %     mph   deg.    mph    mb.     in.     
-------------------------------------------------------------------------
  86    8:10   0.49   74.0    14    1.4    71     3.3   881.3    0.00 
  86    8:20   0.53   75.4    13    1.6    56     6.2   881.5    0.00 
  86    8:30   0.56   72.2    14    2.7    55     6.1   881.7    0.00 
  86    8:40   0.60   72.8    14    3.0    72     6.6   881.8    0.00 
  86    8:50   0.63   73.1    14    2.6    97     7.5   881.9    0.00 
  86    9:00   0.66   73.9    14    3.2    68     7.9   882.0    0.00 
  86    9:10   0.69   74.0    14    3.0    66     7.6   882.1    0.00 
  86    9:20   0.72   74.6    13    2.1    43     7.2   882.1    0.00 
  86    9:30   0.75   75.2    13    3.6    86     6.4   882.2    0.00 
  86    9:40   0.77   74.3    13    4.5    67     8.8   882.2    0.00 
  86    9:50   0.80   74.2    13    3.6    24     7.7   882.2    0.00 
  86   10:00   0.82   74.5    13    3.9    74     9.2   882.1    0.00 
  86   10:10   0.84   74.5    13    3.5    20     9.9   882.1    0.00 
  86   10:20   0.86   75.1    13    4.6    70    12.0   882.1    0.00 
  86   10:30   0.88   75.0    13    5.0    76    11.4   882.0    0.00 
  86   10:40   0.89   75.1    13    3.9   329     6.9   882.0    0.00 
  86   10:50   0.91   75.8    13    3.4    98    10.4   881.9    0.00 
  86   11:00   0.92   76.0    13    4.8    54     9.9   881.8    0.00 
  86   11:10   0.93   76.4    13    3.1   134     6.3   881.8    0.00 
  86   11:20   0.94   77.8    12    3.8   203     7.8   881.8    0.00 
  86   11:30   0.94   77.4    12    1.6   258     5.8   881.6    0.00 
  86   11:40   0.95   77.3    13    4.5    95    10.1   881.5    0.00 
  86   11:50   0.95   77.5    12    4.1    34    10.2   881.4    0.00 
  86   12:00   0.93   77.1    13    3.7   114    10.4   881.2    0.00 
  86   12:10   0.94   78.4    12    3.8    69     9.9   881.1    0.00 
  86   12:20   0.94   79.0    12    5.4    64    11.2   880.9    0.00 
  86   12:30   0.94   78.4    12    4.4   110     9.6   880.8    0.00 
  86   12:40   0.93   80.0    12    3.2   190     7.5   880.6    0.00 
  86   12:50   0.92   80.3    11    3.0   310     9.6   880.5    0.00 
  86   13:00   0.91   81.1    11    5.2   159    10.4   880.4    0.00 
  86   13:10   0.90   80.9    11    3.0   114     8.9   880.3    0.00 
  86   13:20   0.88   81.4    11    3.1   188     7.8   880.1    0.00 
  86   13:30   0.86   80.6    11    4.0   191     9.6   880.0    0.00 
  86   13:40   0.84   80.7    11    3.5   278     7.9   879.9    0.00 
  86   13:50   0.82   80.9    11    4.0   259    11.0   879.7    0.00 
  86   14:00   0.80   80.9    11    3.0   255     9.3   879.6    0.00 
  86   14:10   0.77   81.1    11    6.3   191    14.9   879.5    0.00 
  86   14:20   0.75   80.6    12    6.0   143    10.4   879.4    0.00 
  86   14:30   0.72   80.7    12    4.7   205    11.2   879.3    0.00 
  86   14:40   0.69   80.2    12    4.1   197    11.3   879.2    0.00 
  86   14:50   0.66   80.3    12    6.3   136    12.8   879.1    0.00 
  86   15:00   0.63   80.1    12    6.3   117    12.9   879.0    0.00 
  86   15:10   0.60   80.0    12    6.8   204    13.7   878.9    0.00 
  86   15:20   0.57   81.0    12    6.1   184    11.8   878.9    0.00 
  86   15:30   0.53   80.7    12    2.5   121     8.6   878.9    0.00 
  86   15:40   0.50   81.6    12    3.8   193     9.1   878.9    0.00 
  86   15:50   0.46   80.3    12    6.4   237    12.1   878.9    0.00 
  86   16:00   0.42   79.8    12    4.8   220    11.5   878.9    0.00 
  86   16:10   0.39   80.3    12    5.2   216    12.3   878.9    0.00 
  86   16:20   0.35   80.2    12    4.9   237     9.7   878.8    0.00 
  86   16:30   0.31   79.1    13    6.2   231    10.8   878.8    0.00 
  86   16:40   0.27   79.9    13    4.7   223    10.7   878.8    0.00 
  86   16:50   0.23   79.9    13    4.3   211     9.0   878.8    0.00 
  86   17:00   0.20   78.2    13    5.9   213    11.3   878.8    0.00 
  86   17:10   0.16   77.6    13    5.6   203    11.0   878.8    0.00 
  86   17:20   0.12   77.0    14    6.1   220    12.7   878.8    0.00 
  86   17:30   0.09   76.0    14    5.0   201    10.2   878.8    0.00 
  86   17:40   0.05   74.6    14    4.6   214     8.7   878.8    0.00 
  86   17:50   0.02   73.6    15    6.3   214    10.7   878.8    0.00 
  86   18:00   0.01   72.8    15    6.8   215    12.1   878.7    0.00 
  86   18:10   0.00   72.1    16    5.1   220    10.2   878.7    0.00 
  86   18:20   0.00   71.9    16    5.8   213    10.2   878.7    0.00 
  86   18:30   0.00   71.3    16    4.3   217     9.0   878.7    0.00 
  86   18:40   0.00   70.8    17    4.2   202     8.0   878.7    0.00 
  86   18:50   0.00   70.1    17    4.0   217     6.6   878.7    0.00 
  86   19:00   0.00   69.9    17    4.6   213     9.5   878.7    0.00 
  86   19:10   0.00   70.3    17    5.6   215     9.6   878.8    0.00 
  86   19:20   0.00   69.7    18    4.0   197     8.7   878.9    0.00 
  86   19:30   0.00   69.1    18    3.3   197     8.0   878.9    0.00 
  86   19:40   0.00   69.1    18    5.0   219    10.0   879.0    0.00 
  86   19:50   0.00   68.6    19    4.5   228     8.4   879.0    0.00 
  86   20:00   0.00   68.1    19    4.2   236     8.9   879.0    0.00 
  86   20:10   0.00   66.4    21    2.7   233     4.2   879.1    0.00 
  86   20:20   0.00   64.6    22    5.1   212     8.1   879.0    0.00 
  86   20:30   0.00   67.4    20    5.8   211     8.1   879.0    0.00 
  86   20:40   0.00   66.3    21    3.6   232     5.0   879.0    0.00 
  86   20:50   0.00   63.2    24    3.8   228     4.5   879.1    0.00 
  86   21:00   0.00   61.3    26    4.8   222     6.0   879.0    0.00 
  86   21:10   0.00   62.4    25    4.0   232     5.8   879.1    0.00 
  86   21:20   0.00   60.4    27    2.4   252     3.6   879.2    0.00 
  86   21:30   0.00   58.1    29    2.8   262     3.6   879.2    0.00 
  86   21:40   0.00   57.8    29    4.4   225     5.8   879.2    0.00 
  86   21:50   0.00   62.3    26    4.3   217     7.4   879.3    0.00 
  86   22:00   0.00   64.8    24    4.7   225     7.3   879.3    0.00 
  86   22:10   0.00   63.3    25    2.9   228     5.1   879.3    0.00 
  86   22:20   0.00   59.6    29    2.8   247     4.5   879.3    0.00 
  86   22:30   0.00   58.4    29    3.7   262     5.3   879.4    0.00 
  86   22:40   0.00   59.1    26    3.1   268     4.7   879.4    0.00 
  86   22:50   0.00   56.4    29    1.6   250     3.9   879.5    0.00 
  86   23:00   0.00   53.7    32    0.9   304     2.0   879.5    0.00 
  86   23:10   0.00   52.7    32    1.4   319     2.9   879.5    0.00 
  86   23:20   0.00   52.8    32    0.2   281     2.3   879.5    0.00 
  86   23:30   0.00   53.3    32    1.5   238     3.0   879.5    0.00 
  86   23:40   0.00   54.7    30    2.4   242     3.2   879.5    0.00 
  86   23:50   0.00   54.0    31    3.1   260     4.7   879.5    0.00 
  87    0:00   0.00   53.1    31    2.7   256     4.1   879.5    0.00 
  87    0:10   0.00   53.4    31    3.4   246     4.7   879.6    0.00 
  87    0:20   0.00   53.3    31    2.7   232     4.8   879.5    0.00 
  87    0:30   0.00   54.1    31    4.6   208     6.4   879.5    0.00 
  87    0:40   0.00   55.8    29    2.9   197     5.8   879.4    0.00 
  87    0:50   0.00   57.6    28    2.9   184     5.7   879.4    0.00 
  87    1:00   0.00   57.3    29    3.8   203     7.6   879.3    0.00 
  87    1:10   0.00   57.2    29    4.1   220     5.3   879.3    0.00 
  87    1:20   0.00   59.2    27    5.8   211     8.9   879.2    0.00 
  87    1:30   0.00   62.9    24    5.7   200     8.2   879.0    0.00 
  87    1:40   0.00   61.8    25    5.2   198     7.2   878.9    0.00 
  87    1:50   0.00   60.6    26    3.7   217     6.4   878.8    0.00 
  87    2:00   0.00   56.5    30    1.3   259     2.6   878.8    0.00 
  87    2:10   0.00   52.9    34    0.9   275     2.3   878.7    0.00 
  87    2:20   0.00   51.1    36    0.8   237     1.8   878.6    0.00 
  87    2:30   0.00   50.6    37    0.5   231     1.8   878.6    0.00 
  87    2:40   0.00   50.1    38    2.4   350     6.1   878.6    0.00 
  87    2:50   0.00   52.4    33    1.9   308     4.1   878.7    0.00 
  87    3:00   0.00   52.4    33    0.0     0     0.0   878.7    0.00 
  87    3:10   0.00   50.1    37    0.2   280     1.5   878.6    0.00 
  87    3:20   0.00   48.8    39    1.4   318     2.7   878.7    0.00 
  87    3:30   0.00   47.7    41    0.5   318     2.0   878.7    0.00 
  87    3:40   0.00   48.1    40    0.7   206     1.3   878.7    0.00 
  87    3:50   0.00   47.6    41    1.8   307     3.1   878.9    0.00 
  87    4:00   0.00   47.1    42    0.5   331     2.3   879.0    0.00 
  87    4:10   0.00   47.5    41    0.6     7     1.8   879.0    0.00 
  87    4:20   0.00   47.1    42    0.3     4     1.4   879.0    0.00 
  87    4:30   0.00   47.0    42    0.4   317     1.7   879.1    0.00 
  87    4:40   0.00   47.3    41    0.0     0     0.0   879.1    0.00 
  87    4:50   0.00   46.9    42    1.1   348     2.7   879.2    0.00 
  87    5:00   0.00   46.5    42    0.7   330     2.3   879.2    0.00 
  87    5:10   0.00   47.0    41    0.0     0     0.0   879.2    0.00 
  87    5:20   0.00   46.1    43    0.6   332     2.4   879.2    0.00 
  87    5:30   0.00   46.1    42    0.5   268     1.8   879.2    0.00 
  87    5:40   0.00   46.1    42    0.1   202     1.0   879.2    0.00 
  87    5:50   0.01   46.1    43    1.6   321     3.9   879.4    0.00 
  87    6:00   0.01   46.6    42    1.2   320     2.3   879.7    0.00 
  87    6:10   0.01   46.6    42    0.2   345     1.2   879.7    0.00 
  87    6:20   0.03   46.9    42    0.3   351     1.9   879.8    0.00 
  87    6:30   0.03   48.0    40    0.1   337     1.1   879.7    0.00 
  87    6:40   0.13   51.4    34    0.5   318     1.7   879.7    0.00 
  87    6:50   0.19   59.9    24    0.1   323     0.9   879.8    0.00 
  87    7:00   0.23   65.8    21    0.0     0     0.0   879.8    0.00 
  87    7:10   0.27   68.9    19    0.0     0     0.0   879.8    0.00 
  87    7:20   0.31   73.2    17    0.0     0     0.0   879.8    0.00 
  87    7:30   0.35   74.1    18    1.8   346     3.1   879.7    0.00 
  87    7:40   0.39   70.6    19    2.2   330     3.4   879.7    0.00 
  87    7:50   0.43   71.7    18    0.9    26     2.6   879.7    0.00 
  87    8:00   0.47   74.2    16    1.2   109     4.4   879.7    0.00 

Return to Burns Pinion Ridge Reserve graphs page.


Western Regional Climate Center,wrcc@dri.edu